Details From CYQY - Sydney
To PAOM - Nome
Flight Number -
Tags Decoded
Created
Modified
Stats Distance 3,311 nm / 6,132 km
Max Altitude 0 ft / 0 m
Waypoints 2
Social Downloads 0
Likes 0
Share VATSIM

Download

Looking for another format? Having issues loading an existing format? Contact us
Advertisement - Login to hide

Notes

Decoded

Route

CYQY PAOM

ID Type Via Altitude Latitude Longitude Leg Dist Tot Dist Heading (true) Name
O CYQY APT - 0 ft / 0 m 46.15339˚ -60.03638˚ - 0 nm - -
O PAOM APT - 0 ft / 0 m 64.50723˚ -165.45178˚ 3310 nm 3310 nm 330° / 234° NOME

Altitude Profile

Advertisement - Login to hide

Weather


0- 5 10 15 20 25 30 35+ Temperature / ° C

Clouds and Precipitation
Forecast for 2017-12-17 06:00 UTC. Updated 2 hours ago

Ground ~20,000 ft ~40,000 ft Winds

CYQY

Details ICAO CYQY (YQY)
Name SYDNEY
Region Canada
Timezone America/Glace_Bay (UTC-4.0)
Stats Elevation 203 ft / 62 m (AMSL)
Location 46.160915° -60.045267°
Runways 2
Magnetic Variation 18.110° W

METAR

CYQY 170200Z 26013KT 15SM SCT039 OVC110 M07/M11 A2955 RMK SC3AC5 SLP010

Decode

TAF

TAF CYQY 162338Z 1700/1712 28015G25KT P6SM BKN030 TEMPO 1700/1712 4SM -SHSN BLSN OVC020 RMK NXT FCST BY 170600Z

Decode

Departure Runways

ID Width Length Bearing (true) Bearing (mag) Surface Threshold Offset Overrun Length
01 151 ft / 46 m 6,006 ft / 1,831 m 345.29° 3.40° Asphalt 0 ft / 0 m 0 ft / 0 m
07 200 ft / 61 m 7,077 ft / 2,157 m 45.90° 64.01° Asphalt 0 ft / 0 m 0 ft / 0 m
19 151 ft / 46 m 6,006 ft / 1,831 m 165.29° 183.40° Asphalt 0 ft / 0 m 0 ft / 0 m
25 200 ft / 61 m 7,077 ft / 2,157 m 225.92° 244.03° Asphalt 0 ft / 0 m 0 ft / 0 m

PAOM

Details ICAO PAOM (OME)
Name NOME
Region USA (Alaska)
Timezone America/Nome (UTC-9.0)
Stats Elevation 37 ft / 11 m (AMSL)
Location 64.512227° -165.445062°
Runways 2
Magnetic Variation 10.032° E

METAR

PAOM 170208Z 00000KT 10SM SCT024 SCT049 M04/M04 A2920

Decode

TAF

PAOM 162335Z 1700/1724 VRB06KT P6SM SCT025 BKN035 OVC050 FM170900 VRB06KT P6SM -SN SCT015 BKN025 OVC035 FM171800 26004KT P6SM VCSH SCT025 BKN035 OVC050

Decode

Destination Runways

ID Width Length Bearing (true) Bearing (mag) Surface Threshold Offset Overrun Length
03 151 ft / 46 m 5,560 ft / 1,695 m 41.63° 31.60° Asphalt 0 ft / 0 m 0 ft / 0 m
10 151 ft / 46 m 5,979 ft / 1,822 m 109.76° 99.73° Asphalt 0 ft / 0 m 0 ft / 0 m
21 151 ft / 46 m 5,560 ft / 1,695 m 221.65° 211.62° Asphalt 0 ft / 0 m 0 ft / 0 m
28 151 ft / 46 m 5,979 ft / 1,822 m 289.80° 279.77° Asphalt 0 ft / 0 m 0 ft / 0 m

Approach Navaids

Runway Type Ident Frequency Range Bearing (true) Bearing (mag) Slope Elevation
28 Localiser IOME 108.70 MHz 18 nm / 33 km 289.76° 279.73° - 37 ft / 11 m (AMSL)
28 Glidescope IOME 108.70 MHz 10 nm / 19 km 289.78° 279.75° 3.00° 15 ft / 5 m (AMSL)